Time;durP1;ratioP1;P1;durP2;ratioP2;P2;SDS_P1;SDS_P2;PMS_P1;PMS_P2;Temp;Humidity;BMP_temperature;BMP_pressure;BME280_temperature;BME280_humidity;BME280_pressure;Samples;Min_cycle;Max_cycle;Signal;HPM_P1;HPM_P2
2022/12/02 00:01:39;;;;;;;27.42;14.33;;;;;;;-1.80;65.81;100658.27;1709703;84;21031;-38
2022/12/02 00:04:27;;;;;;;25.62;13.32;;;;;;;-1.85;65.97;100655.02;1709932;83;20975;-38
2022/12/02 00:06:55;;;;;;;24.98;13.83;;;;;;;-1.81;65.85;100657.98;1709737;83;21003;-38
2022/12/02 00:09:33;;;;;;;26.80;13.60;;;;;;;-1.84;65.67;100652.61;1709825;83;21572;-38
2022/12/02 00:12:15;;;;;;;25.95;14.07;;;;;;;-1.83;65.74;100650.76;1709606;83;21838;-38
2022/12/02 00:14:42;;;;;;;24.50;13.32;;;;;;;-1.85;65.66;100654.20;1709554;84;21375;-38
2022/12/02 00:17:09;;;;;;;26.12;13.85;;;;;;;-1.88;65.74;100653.35;1709372;84;21380;-38
2022/12/02 00:19:35;;;;;;;29.32;14.47;;;;;;;-1.85;65.68;100655.53;1709524;84;21603;-38
2022/12/02 00:22:02;;;;;;;25.57;13.32;;;;;;;-1.89;65.49;100649.11;1709361;83;21231;-38
2022/12/02 00:24:29;;;;;;;25.48;13.60;;;;;;;-1.89;65.36;100658.41;1709455;84;20951;-38
2022/12/02 00:26:56;;;;;;;24.15;13.95;;;;;;;-1.93;65.31;100651.95;1709432;84;20912;-38
2022/12/02 00:29:22;;;;;;;26.23;14.98;;;;;;;-1.94;65.30;100653.02;1709476;83;20971;-38
2022/12/02 00:31:49;;;;;;;27.05;15.40;;;;;;;-1.91;65.30;100655.18;1709482;84;21002;-38
2022/12/02 00:34:16;;;;;;;28.42;15.45;;;;;;;-1.91;65.40;100656.51;1709353;84;23158;-38
2022/12/02 00:36:44;;;;;;;30.08;16.48;;;;;;;-1.89;65.37;100655.75;1709261;84;21495;-38
2022/12/02 00:39:11;;;;;;;25.00;14.80;;;;;;;-1.90;65.42;100656.80;1709696;84;21500;-38
2022/12/02 00:41:39;;;;;;;27.15;15.03;;;;;;;-1.88;65.51;100657.34;1709471;84;21043;-38
2022/12/02 00:46:51;;;;;;;26.25;14.53;;;;;;;-1.79;65.55;100654.01;1709435;84;21150;-38
2022/12/02 00:49:18;;;;;;;24.35;13.85;;;;;;;-1.69;65.65;100652.00;1709433;83;21055;-38
2022/12/02 00:51:45;;;;;;;30.23;15.08;;;;;;;-1.56;65.32;100651.66;1709472;84;21563;-38
2022/12/02 00:54:12;;;;;;;25.45;14.43;;;;;;;-1.54;65.05;100645.55;1709655;83;21020;-38
2022/12/02 00:56:39;;;;;;;26.15;14.07;;;;;;;-1.50;64.62;100645.32;1709363;84;21567;-38
2022/12/02 00:59:06;;;;;;;24.43;14.28;;;;;;;-1.57;64.56;100643.39;1709496;84;21966;-38
2022/12/02 01:01:34;;;;;;;26.00;13.28;;;;;;;-1.59;64.42;100641.49;1709640;84;21079;-38
2022/12/02 01:04:01;;;;;;;25.90;13.78;;;;;;;-1.64;64.39;100644.09;1709401;83;21462;-38
2022/12/02 01:06:28;;;;;;;24.75;13.60;;;;;;;-1.67;64.22;100643.27;1709400;83;21030;-38
2022/12/02 01:08:55;;;;;;;26.68;13.35;;;;;;;-1.74;64.40;100641.30;1709397;83;20998;-38
2022/12/02 01:11:22;;;;;;;25.20;14.03;;;;;;;-1.71;64.53;100640.02;1709534;83;21097;-38
2022/12/02 01:13:49;;;;;;;26.40;12.28;;;;;;;-1.71;64.66;100635.52;1709425;83;20955;-38
2022/12/02 01:16:16;;;;;;;23.92;12.68;;;;;;;-1.68;64.13;100634.20;1709286;84;21087;-38
2022/12/02 01:18:44;;;;;;;23.27;12.25;;;;;;;-1.70;64.10;100633.14;1709459;84;20971;-38
2022/12/02 01:21:11;;;;;;;26.20;13.53;;;;;;;-1.66;64.34;100638.23;1709677;83;21063;-38
2022/12/02 01:23:38;;;;;;;25.90;13.38;;;;;;;-1.67;64.25;100635.29;1709731;83;21313;-38
2022/12/02 01:26:06;;;;;;;23.67;12.73;;;;;;;-1.60;64.25;100635.92;1709532;84;21047;-38
2022/12/02 01:28:33;;;;;;;24.43;13.25;;;;;;;-1.58;64.40;100627.67;1709813;83;21509;-38
2022/12/02 01:31:01;;;;;;;21.30;12.45;;;;;;;-1.53;63.90;100627.73;1709496;84;21095;-38
2022/12/02 01:33:28;;;;;;;23.85;12.85;;;;;;;-1.55;63.75;100626.64;1709548;84;21598;-38
2022/12/02 01:35:55;;;;;;;23.77;12.98;;;;;;;-1.60;63.81;100618.64;1709667;84;21146;-38
2022/12/02 01:38:22;;;;;;;24.15;13.40;;;;;;;-1.63;63.76;100621.77;1709699;84;21615;-38
2022/12/02 01:40:49;;;;;;;23.83;12.65;;;;;;;-1.70;64.05;100623.83;1709545;84;20991;-38
2022/12/02 01:43:17;;;;;;;22.05;12.10;;;;;;;-1.70;64.14;100622.50;1709710;82;21627;-38
2022/12/02 01:45:44;;;;;;;26.23;13.20;;;;;;;-1.74;64.14;100625.35;1709574;84;21004;-38
2022/12/02 01:48:10;;;;;;;21.07;11.30;;;;;;;-1.69;64.34;100621.98;1709504;84;23162;-38
2022/12/02 01:50:38;;;;;;;22.05;12.50;;;;;;;-1.63;63.94;100617.78;1709664;83;20967;-38
2022/12/02 01:53:05;;;;;;;23.83;12.80;;;;;;;-1.67;63.81;100620.67;1709396;84;21006;-38
2022/12/02 01:55:32;;;;;;;26.55;13.28;;;;;;;-1.69;63.95;100620.66;1709510;84;21105;-38
2022/12/02 01:57:59;;;;;;;25.32;12.90;;;;;;;-1.75;64.15;100615.80;1709429;84;21583;-38
2022/12/02 05:25:59;;;;;;;19.50;9.85;;;;;;;-2.47;69.95;100606.56;1810198;78;22750;-38
2022/12/02 05:28:26;;;;;;;21.60;11.30;;;;;;;-2.41;69.09;100607.45;1802432;79;20955;-38
2022/12/02 05:30:53;;;;;;;16.37;10.30;;;;;;;-2.42;68.97;100611.95;1816566;79;21231;-38
2022/12/02 05:33:20;;;;;;;20.10;10.23;;;;;;;-2.37;68.41;100613.36;1816409;79;20950;-38
2022/12/02 05:35:47;;;;;;;19.80;9.65;;;;;;;-2.35;68.10;100613.92;1816680;79;20994;-37
2022/12/02 05:38:13;;;;;;;17.30;8.58;;;;;;;-2.32;68.10;100620.59;1816511;78;20915;-38
2022/12/02 05:40:40;;;;;;;15.32;8.78;;;;;;;-2.26;68.05;100620.95;1816627;79;20887;-38
2022/12/02 05:43:23;;;;;;;16.25;8.58;;;;;;;-2.26;67.69;100624.94;1816608;79;21118;-38
2022/12/02 05:45:50;;;;;;;21.27;9.75;;;;;;;-2.23;67.54;100621.26;1816281;79;21511;-38
2022/12/02 05:48:18;;;;;;;15.50;8.75;;;;;;;-2.24;67.30;100624.98;1816622;79;21480;-38
2022/12/02 05:50:45;;;;;;;18.67;9.70;;;;;;;-2.27;67.02;100628.11;1816641;79;20962;-38
2022/12/02 05:53:21;;;;;;;17.17;9.85;;;;;;;-2.25;66.95;100626.03;1816494;79;20942;-38
2022/12/02 05:55:50;;;;;;;18.55;10.63;;;;;;;-2.25;67.16;100635.84;1815023;79;21177;-38
2022/12/02 05:58:17;;;;;;;;;;;;;;;-2.22;67.14;100628.70;1819130;79;21542;-38
2022/12/02 06:00:55;;;;;;;17.17;9.43;;;;;;;-2.21;67.10;100639.09;1816586;78;20117;-38
2022/12/02 06:03:21;;;;;;;19.23;10.00;;;;;;;-2.25;67.17;100638.50;1816331;79;20938;-38
2022/12/02 06:05:48;;;;;;;17.98;9.50;;;;;;;-2.25;66.80;100639.31;1816404;79;20999;-38
2022/12/02 06:08:24;;;;;;;18.15;9.43;;;;;;;-2.22;66.88;100635.34;1816442;79;21126;-38
2022/12/02 06:10:56;;;;;;;17.00;9.70;;;;;;;-2.16;66.52;100636.23;1816531;79;21296;-38
2022/12/02 06:13:26;;;;;;;20.17;10.32;;;;;;;-2.16;66.26;100646.85;1816554;78;20899;-38
2022/12/02 10:36:13;;;;;;;16.27;9.95;;;;;;;0.69;59.20;100653.33;1814297;79;22797;-38
2022/12/02 10:38:42;;;;;;;14.83;9.63;;;;;;;0.89;59.05;100648.58;1755653;81;20912;-38
2022/12/02 10:41:17;;;;;;;17.17;9.67;;;;;;;0.95;58.58;100646.19;1753606;81;21861;-38
2022/12/02 10:43:54;;;;;;;26.60;11.15;;;;;;;1.00;58.12;100643.53;1753354;81;20944;-38
2022/12/02 10:46:21;;;;;;;18.23;10.75;;;;;;;1.00;57.75;100642.20;1750865;81;20920;-38
2022/12/02 10:48:49;;;;;;;19.80;11.00;;;;;;;1.04;57.60;100647.27;1726774;83;21057;-38
2022/12/02 10:51:18;;;;;;;19.60;11.22;;;;;;;1.12;57.77;100649.41;1755926;81;20996;-38
2022/12/02 10:53:48;;;;;;;20.72;12.35;;;;;;;1.16;57.51;100647.81;1752878;81;21138;-38
2022/12/02 10:56:18;;;;;;;16.50;10.53;;;;;;;1.25;57.59;100649.44;1720659;81;21529;-38
2022/12/02 10:58:46;;;;;;;16.62;11.18;;;;;;;1.28;57.53;100645.70;1753367;81;20924;-38
2022/12/02 11:01:13;;;;;;;19.80;11.75;;;;;;;1.38;56.93;100650.23;1753251;81;20979;-38
2022/12/02 11:03:40;;;;;;;21.23;11.22;;;;;;;1.34;56.93;100652.38;1726655;83;21096;-38
2022/12/02 11:06:16;;;;;;;20.15;11.68;;;;;;;1.24;57.28;100645.97;1753250;81;23170;-38
2022/12/02 11:08:43;;;;;;;20.23;11.83;;;;;;;1.25;57.32;100647.58;1726833;83;21040;-38
2022/12/02 11:11:17;;;;;;;20.95;12.68;;;;;;;1.36;57.43;100644.34;1753412;81;20989;-38
2022/12/02 11:13:59;;;;;;;19.50;12.53;;;;;;;1.50;57.56;100640.63;1753234;81;20986;-38
2022/12/02 11:16:34;;;;;;;22.80;13.08;;;;;;;1.56;57.06;100640.87;1726762;83;21593;-38
2022/12/02 11:19:28;;;;;;;22.35;13.50;;;;;;;1.57;56.46;100630.45;1753380;81;21152;-38
2022/12/02 11:21:55;;;;;;;22.17;13.08;;;;;;;1.54;56.94;100631.00;1753327;81;20989;-38
2022/12/02 11:24:27;;;;;;;19.95;12.47;;;;;;;1.55;56.81;100635.28;1726624;83;21084;-38
2022/12/02 11:27:05;;;;;;;23.90;14.13;;;;;;;1.56;56.32;100638.20;1747133;81;21350;-38
2022/12/02 11:30:05;;;;;;;23.95;12.65;;;;;;;1.52;55.81;100635.27;1753698;81;20968;-38
2022/12/02 11:32:41;;;;;;;25.25;11.33;;;;;;;1.48;56.54;100634.74;1726682;83;21258;-38
2022/12/02 11:35:14;;;;;;;30.25;15.18;;;;;;;1.42;56.12;100639.81;1753063;81;20920;-39
2022/12/02 11:37:44;;;;;;;23.57;15.05;;;;;;;1.34;56.31;100637.16;1755202;81;20953;-38
2022/12/02 11:40:20;;;;;;;25.75;14.98;;;;;;;1.33;56.42;100636.87;1721200;83;21512;-39
2022/12/02 11:42:47;;;;;;;18.75;11.97;;;;;;;1.24;56.51;100633.94;1726214;83;21049;-38
2022/12/02 11:45:23;;;;;;;19.80;11.03;;;;;;;1.18;57.14;100644.34;1752790;81;21238;-38
2022/12/02 11:47:58;;;;;;;17.98;10.50;;;;;;;1.16;57.53;100632.34;1726156;83;21024;-38
2022/12/02 11:50:28;;;;;;;17.12;9.95;;;;;;;1.17;57.25;100634.73;1752781;81;21007;-39
2022/12/02 11:52:58;;;;;;;16.40;9.88;;;;;;;1.20;57.12;100632.88;1726208;83;21030;-39
2022/12/02 11:55:38;;;;;;;;;;;;;;;1.25;57.06;100637.42;1757851;81;21022;-38
2022/12/02 11:58:22;;;;;;;17.45;10.80;;;;;;;1.23;57.09;100641.69;1726491;83;24354;-38
2022/12/02 12:01:14;;;;;;;19.57;11.18;;;;;;;1.25;58.23;100638.23;1755109;81;20928;-39
2022/12/02 12:03:43;;;;;;;18.98;10.70;;;;;;;1.39;58.62;100639.02;1724640;81;20924;-38
2022/12/02 12:06:19;;;;;;;18.32;11.43;;;;;;;1.54;58.70;100634.48;1720049;83;20985;-38
2022/12/02 12:08:55;;;;;;;22.25;12.20;;;;;;;1.68;58.87;100634.73;1755192;81;21031;-39
2022/12/02 12:11:35;;;;;;;19.90;12.07;;;;;;;1.78;58.65;100637.39;1726186;83;21783;-38
2022/12/02 12:14:17;;;;;;;21.85;11.65;;;;;;;1.87;58.35;100635.77;1752753;81;20943;-38
2022/12/02 12:16:46;;;;;;;17.62;11.05;;;;;;;1.92;58.41;100636.30;1726212;83;21024;-38
2022/12/02 12:19:19;;;;;;;28.52;12.60;;;;;;;1.98;58.23;100635.22;1755384;81;21450;-39
2022/12/02 12:21:54;;;;;;;22.42;12.50;;;;;;;2.00;58.37;100638.41;1726112;83;21029;-38
2022/12/02 12:24:25;;;;;;;22.10;11.95;;;;;;;2.02;58.11;100634.40;1755097;81;21474;-39
2022/12/02 12:26:56;;;;;;;20.30;11.80;;;;;;;2.02;57.99;100638.41;1726192;83;21598;-38
2022/12/02 12:29:35;;;;;;;19.95;12.58;;;;;;;1.94;58.07;100638.95;1755166;81;20941;-38
2022/12/02 12:32:02;;;;;;;21.77;12.37;;;;;;;1.84;58.18;100636.29;1752957;81;21371;-38
2022/12/02 12:34:29;;;;;;;19.20;11.68;;;;;;;1.80;58.51;100637.10;1752778;81;21481;-39
2022/12/02 12:36:56;;;;;;;19.85;11.97;;;;;;;1.78;58.15;100639.27;1752948;81;21157;-38
2022/12/02 12:39:23;;;;;;;20.48;11.05;;;;;;;1.72;58.27;100639.80;1726108;83;21001;-38
2022/12/02 12:41:50;;;;;;;20.27;11.73;;;;;;;1.66;58.54;100643.55;1752795;81;20944;-38
2022/12/02 12:44:18;;;;;;;22.17;12.18;;;;;;;1.66;58.64;100643.55;1726294;83;21500;-39
2022/12/02 12:46:44;;;;;;;19.75;11.55;;;;;;;1.61;58.52;100644.88;1755002;81;20968;-38
2022/12/02 12:49:11;;;;;;;18.87;11.57;;;;;;;1.56;58.68;100640.87;1721151;83;21096;-38
2022/12/02 12:51:38;;;;;;;18.23;11.28;;;;;;;1.53;58.57;100648.10;1726040;83;21036;-38
2022/12/02 12:54:05;;;;;;;24.43;11.80;;;;;;;1.46;58.67;100647.55;1752756;81;20909;-38
2022/12/02 12:56:31;;;;;;;16.90;10.98;;;;;;;1.39;58.74;100647.84;1726049;83;20933;-38
2022/12/02 12:58:58;;;;;;;17.30;11.48;;;;;;;1.27;58.75;100644.09;1747247;81;21079;-38
2022/12/02 13:01:25;;;;;;;20.00;11.38;;;;;;;1.18;59.33;100647.02;1726236;83;21149;-38
2022/12/02 13:03:52;;;;;;;18.37;11.18;;;;;;;1.17;59.49;100648.08;1752825;81;21015;-39
2022/12/02 13:06:19;;;;;;;21.62;11.18;;;;;;;1.20;59.25;100651.58;1726112;83;21251;-39
2022/12/02 13:08:46;;;;;;;20.30;10.58;;;;;;;1.20;59.46;100642.76;1752731;81;21553;-38
2022/12/02 13:11:13;;;;;;;19.07;10.58;;;;;;;1.22;59.69;100644.08;1752982;81;21465;-38
2022/12/02 13:13:39;;;;;;;18.90;10.20;;;;;;;1.28;59.29;100647.03;1726118;83;21267;-39
2022/12/02 13:16:07;;;;;;;18.15;10.88;;;;;;;1.21;59.44;100649.15;1752714;81;20893;-39
2022/12/02 13:18:33;;;;;;;17.17;10.10;;;;;;;1.16;59.85;100653.15;1752826;81;21489;-38
2022/12/02 13:21:00;;;;;;;21.95;10.93;;;;;;;1.20;60.20;100651.58;1726177;83;20991;-38
2022/12/02 13:23:27;;;;;;;18.27;10.35;;;;;;;1.22;59.97;100653.43;1755103;81;21052;-38
2022/12/02 13:25:54;;;;;;;17.62;10.60;;;;;;;1.19;59.95;100655.84;1726049;83;21250;-38
2022/12/02 13:28:21;;;;;;;16.95;9.88;;;;;;;1.08;59.93;100648.34;1755087;81;20975;-38
2022/12/02 13:30:50;;;;;;;22.37;10.32;;;;;;;1.02;60.40;100650.73;1752617;81;21019;-39
2022/12/02 13:33:17;;;;;;;19.02;11.10;;;;;;;0.97;60.52;100647.27;1726233;83;21712;-39
2022/12/02 13:35:43;;;;;;;19.32;11.55;;;;;;;0.96;60.70;100650.47;1756191;81;21520;-38
2022/12/02 13:38:09;;;;;;;16.97;10.65;;;;;;;0.96;60.75;100644.33;1742797;82;21532;-38
2022/12/02 13:40:36;;;;;;;20.35;11.20;;;;;;;1.00;60.74;100649.41;1761527;81;21568;-38
2022/12/02 13:43:03;;;;;;;17.82;10.75;;;;;;;1.01;60.85;100654.48;1742584;82;21056;-38
2022/12/02 13:45:29;;;;;;;20.48;11.18;;;;;;;0.98;60.96;100653.66;1761421;81;21015;-38
2022/12/02 13:47:57;;;;;;;17.27;10.18;;;;;;;1.02;60.95;100660.08;1736943;82;21095;-38
2022/12/02 13:50:24;;;;;;;18.30;10.90;;;;;;;1.04;61.03;100664.63;1761574;81;21130;-38
2022/12/02 13:52:50;;;;;;;18.62;10.03;;;;;;;1.01;61.09;100663.83;1742508;82;21012;-38
2022/12/02 13:55:17;;;;;;;19.52;10.98;;;;;;;1.01;61.07;100664.36;1761459;81;20919;-38
2022/12/02 13:57:44;;;;;;;17.17;10.80;;;;;;;1.04;61.13;100665.16;1755368;81;21379;-38
2022/12/02 14:00:13;;;;;;;18.87;11.05;;;;;;;1.02;61.04;100660.61;1742555;82;21001;-38
2022/12/02 14:02:41;;;;;;;15.45;8.53;;;;;;;1.00;61.35;100668.09;1761806;81;21234;-39
2022/12/02 14:05:08;;;;;;;19.45;10.40;;;;;;;1.03;61.51;100668.89;1761309;81;21046;-39
2022/12/02 14:07:35;;;;;;;20.20;10.65;;;;;;;1.00;61.60;100666.23;1742389;82;21017;-38
2022/12/02 14:10:04;;;;;;;16.40;10.20;;;;;;;0.93;61.90;100671.53;1761361;81;21346;-38
2022/12/02 14:12:32;;;;;;;17.50;10.78;;;;;;;0.93;62.02;100675.02;1761454;81;20951;-38
2022/12/02 14:14:59;;;;;;;20.05;10.20;;;;;;;0.92;62.07;100679.30;1761605;81;21185;-38
2022/12/02 14:17:25;;;;;;;17.02;10.15;;;;;;;0.95;62.12;100676.90;1761393;81;20979;-38
2022/12/02 14:19:53;;;;;;;18.50;10.15;;;;;;;0.94;61.93;100676.63;1742581;82;20948;-38
2022/12/02 18:11:34;;;;;;;24.07;14.75;;;;;;;-0.21;69.33;100718.98;1785240;80;22767;-38
2022/12/02 18:14:02;;;;;;;24.43;15.05;;;;;;;-0.04;68.33;100721.77;1774489;80;20944;-38
2022/12/02 18:16:29;;;;;;;23.27;13.90;;;;;;;0.00;68.00;100720.20;1738441;82;21203;-38
2022/12/02 18:18:56;;;;;;;27.02;15.83;;;;;;;0.04;67.68;100716.52;1738478;82;20938;-38
2022/12/02 18:21:23;;;;;;;26.65;15.72;;;;;;;0.09;66.86;100720.55;1738584;82;21570;-38
2022/12/02 18:23:50;;;;;;;25.15;14.73;;;;;;;0.12;66.55;100728.02;1738303;82;21491;-38
2022/12/02 18:26:17;;;;;;;24.32;14.65;;;;;;;0.14;66.31;100725.11;1738607;82;20969;-38
2022/12/02 18:28:44;;;;;;;24.82;14.83;;;;;;;0.14;66.11;100722.44;1738386;82;23124;-38
2022/12/02 18:31:10;;;;;;;25.68;15.28;;;;;;;0.15;65.68;100724.02;1738249;82;20898;-38
2022/12/02 18:33:37;;;;;;;25.43;15.30;;;;;;;0.11;65.72;100725.08;1732307;82;20965;-38
2022/12/02 18:36:06;;;;;;;25.57;13.58;;;;;;;0.11;65.48;100726.41;1738306;82;21392;-38
2022/12/02 18:38:33;;;;;;;28.45;15.40;;;;;;;0.11;65.24;100726.94;1738392;82;21542;-38
2022/12/02 18:41:00;;;;;;;30.30;15.88;;;;;;;0.06;65.35;100722.90;1738491;82;22147;-38
2022/12/02 18:43:26;;;;;;;25.95;16.40;;;;;;;0.09;65.13;100727.21;1738342;82;21453;-39
2022/12/02 18:45:53;;;;;;;30.97;17.45;;;;;;;0.06;65.12;100729.04;1738598;82;21535;-38
2022/12/02 18:48:20;;;;;;;34.38;18.92;;;;;;;0.08;64.86;100724.80;1738469;82;21033;-39
2022/12/02 18:50:47;;;;;;;27.27;16.62;;;;;;;0.11;64.66;100726.94;1738487;82;21037;-38
2022/12/02 18:53:14;;;;;;;25.97;15.03;;;;;;;0.11;64.51;100727.74;1738494;82;21076;-38
2022/12/02 18:55:41;;;;;;;26.40;14.58;;;;;;;0.11;64.35;100733.08;1738332;82;21017;-39
2022/12/02 18:58:08;;;;;;;24.72;14.53;;;;;;;0.08;64.20;100722.93;1738534;82;20990;-39
2022/12/02 19:00:35;;;;;;;27.62;14.83;;;;;;;0.09;64.28;100736.55;1738515;82;21029;-38
2022/12/02 19:03:02;;;;;;;28.55;15.43;;;;;;;0.11;64.09;100729.59;1738651;82;20938;-38
2022/12/02 19:05:28;;;;;;;28.62;16.02;;;;;;;0.09;64.29;100738.41;1738521;82;21264;-38
2022/12/02 19:07:55;;;;;;;26.75;13.90;;;;;;;0.13;64.09;100730.97;1738498;82;20958;-38
2022/12/02 19:10:22;;;;;;;28.50;16.37;;;;;;;0.12;63.93;100730.69;1738404;82;21021;-39
2022/12/02 19:12:49;;;;;;;26.62;15.85;;;;;;;0.09;64.00;100733.88;1737763;82;21614;-38
2022/12/02 19:15:16;;;;;;;28.62;15.93;;;;;;;0.10;63.77;100736.02;1737958;82;21097;-39
2022/12/02 19:17:44;;;;;;;26.27;15.35;;;;;;;0.06;63.81;100732.23;1737856;82;21221;-38
2022/12/02 19:20:11;;;;;;;28.60;15.72;;;;;;;0.04;63.75;100729.84;1737866;82;21045;-38
2022/12/02 19:22:38;;;;;;;27.67;16.35;;;;;;;0.04;63.83;100731.70;1746277;82;21519;-39
2022/12/02 19:25:06;;;;;;;32.20;16.12;;;;;;;0.07;63.69;100738.65;1746187;82;21491;-38
2022/12/02 19:27:34;;;;;;;22.20;12.98;;;;;;;0.02;63.74;100737.81;1746278;82;21526;-38
2022/12/02 19:30:01;;;;;;;29.75;16.93;;;;;;;0.04;63.68;100737.03;1745938;82;23075;-38
2022/12/02 19:32:29;;;;;;;31.68;16.17;;;;;;;0.02;63.70;100746.61;1746093;82;20930;-38
2022/12/02 19:34:55;;;;;;;28.12;16.23;;;;;;;-0.04;63.67;100743.62;1746200;82;21020;-38
2022/12/02 19:37:22;;;;;;;29.18;17.00;;;;;;;-0.05;63.83;100745.48;1746331;82;21539;-38
2022/12/02 19:39:49;;;;;;;29.48;16.80;;;;;;;-0.02;63.87;100747.66;1746143;82;21056;-38
2022/12/02 19:42:16;;;;;;;30.27;16.97;;;;;;;0.01;63.56;100749.00;1746199;82;21096;-39
2022/12/02 19:44:43;;;;;;;30.10;16.73;;;;;;;-0.06;63.64;100745.77;1745927;82;21013;-38
2022/12/02 19:47:10;;;;;;;31.25;17.07;;;;;;;-0.07;63.69;100744.15;1746034;82;20981;-38
2022/12/02 19:49:36;;;;;;;29.40;16.75;;;;;;;-0.08;63.72;100747.87;1746180;82;20945;-38
2022/12/02 19:52:03;;;;;;;28.98;16.15;;;;;;;-0.11;63.54;100744.39;1746058;82;20961;-39
2022/12/02 19:54:31;;;;;;;30.30;16.65;;;;;;;-0.15;63.65;100747.30;1745971;82;21252;-39
2022/12/02 19:56:57;;;;;;;30.00;15.72;;;;;;;-0.16;63.77;100749.16;1746104;82;21055;-38
2022/12/02 19:59:24;;;;;;;28.62;16.55;;;;;;;-0.10;63.84;100750.00;1745971;82;21108;-38
2022/12/02 20:01:51;;;;;;;27.27;16.15;;;;;;;-0.10;63.79;100750.00;1746007;82;21045;-39
2022/12/02 20:04:18;;;;;;;29.85;16.42;;;;;;;-0.11;63.71;100750.53;1746133;82;21000;-39
2022/12/02 20:06:44;;;;;;;30.15;16.17;;;;;;;-0.09;63.88;100751.58;1746002;82;23082;-38
2022/12/02 20:09:11;;;;;;;30.12;16.50;;;;;;;-0.03;63.74;100747.91;1746302;82;21546;-38
2022/12/02 20:11:40;;;;;;;29.30;16.87;;;;;;;-0.05;63.48;100753.48;1745929;81;21110;-38
2022/12/02 20:14:07;;;;;;;28.85;17.98;;;;;;;-0.05;63.70;100751.38;1746116;82;21356;-38
2022/12/02 20:16:33;;;;;;;29.67;16.73;;;;;;;-0.07;63.67;100749.48;1745916;82;21081;-38
2022/12/02 20:19:00;;;;;;;26.55;16.23;;;;;;;-0.10;63.90;100750.00;1746353;82;21945;-38
2022/12/02 20:21:27;;;;;;;33.45;18.27;;;;;;;-0.04;63.88;100750.29;1746001;82;21667;-38
2022/12/02 20:23:53;;;;;;;32.33;17.50;;;;;;;-0.05;64.04;100750.81;1746081;82;21575;-38
2022/12/02 20:26:20;;;;;;;30.57;16.67;;;;;;;-0.04;64.09;100755.63;1746228;82;20906;-38
2022/12/02 20:28:46;;;;;;;32.23;17.67;;;;;;;-0.05;63.95;100749.48;1745956;82;21123;-38
2022/12/02 20:31:13;;;;;;;28.40;17.52;;;;;;;-0.09;64.11;100748.92;1746073;82;21142;-38
2022/12/02 20:33:40;;;;;;;27.62;17.17;;;;;;;-0.05;64.26;100752.70;1746040;82;20993;-38
2022/12/02 20:36:08;;;;;;;28.25;16.97;;;;;;;-0.01;64.03;100752.47;1746059;82;21061;-38
2022/12/02 20:38:34;;;;;;;28.70;17.65;;;;;;;0.02;63.99;100755.94;1745941;82;20938;-38
2022/12/02 20:41:01;;;;;;;29.37;17.50;;;;;;;-0.01;63.87;100750.61;1746115;82;20965;-38
2022/12/02 20:43:28;;;;;;;28.83;16.30;;;;;;;-0.03;64.02;100751.38;1746075;82;21236;-38
2022/12/02 20:45:55;;;;;;;33.53;18.25;;;;;;;0.00;64.00;100748.19;1746058;82;20926;-38
2022/12/02 20:48:22;;;;;;;30.27;17.12;;;;;;;0.01;63.96;100751.66;1746078;82;21057;-39
2022/12/02 20:50:49;;;;;;;34.88;18.40;;;;;;;0.04;63.97;100755.70;1745898;82;21020;-38
2022/12/02 20:53:17;;;;;;;31.70;18.70;;;;;;;0.09;63.84;100746.41;1746156;82;21085;-38
2022/12/02 20:55:43;;;;;;;31.90;18.50;;;;;;;0.07;63.70;100749.84;1746003;82;21252;-38
2022/12/02 20:58:10;;;;;;;30.40;17.32;;;;;;;0.07;63.77;100757.31;1745952;82;20989;-38
2022/12/02 21:00:38;;;;;;;30.45;17.40;;;;;;;0.06;64.06;100759.70;1746014;82;20934;-38
2022/12/02 21:03:05;;;;;;;30.32;17.65;;;;;;;0.10;63.90;100761.34;1746014;82;21078;-38
2022/12/02 21:05:33;;;;;;;31.10;17.15;;;;;;;0.08;63.83;100754.12;1746073;82;21025;-38
2022/12/02 21:08:01;;;;;;;29.67;16.05;;;;;;;0.11;63.75;100753.07;1746202;82;21226;-38
2022/12/02 21:10:29;;;;;;;28.87;17.32;;;;;;;0.04;63.75;100759.17;1746024;81;21232;-39
2022/12/02 21:12:56;;;;;;;27.27;16.23;;;;;;;0.02;64.07;100761.27;1746103;82;21495;-39
2022/12/02 21:15:25;;;;;;;28.42;16.67;;;;;;;0.04;64.18;100757.84;1744271;82;20945;-38
2022/12/02 21:17:52;;;;;;;26.25;16.00;;;;;;;0.06;64.18;100753.56;1745914;82;21096;-39
2022/12/02 21:20:18;;;;;;;27.17;16.60;;;;;;;0.05;64.10;100755.42;1746006;82;21279;-38
2022/12/02 21:22:46;;;;;;;25.92;16.95;;;;;;;0.04;64.19;100756.50;1745938;82;21562;-39
2022/12/02 21:25:13;;;;;;;26.00;16.30;;;;;;;0.10;64.20;100758.13;1746016;82;20973;-38
2022/12/02 21:27:40;;;;;;;28.45;16.57;;;;;;;0.11;63.98;100754.41;1745781;82;21017;-38
2022/12/02 21:30:09;;;;;;;25.68;15.98;;;;;;;0.10;64.01;100751.45;1746046;82;21052;-38
2022/12/02 21:32:36;;;;;;;25.70;16.45;;;;;;;0.10;64.04;100758.13;1746238;82;21276;-38
2022/12/02 21:35:04;;;;;;;27.35;15.38;;;;;;;0.13;64.04;100757.62;1746125;82;20977;-38
2022/12/02 21:37:31;;;;;;;26.10;15.75;;;;;;;0.10;63.76;100752.80;1740220;82;21065;-38
2022/12/02 21:39:57;;;;;;;30.92;16.50;;;;;;;0.04;63.85;100763.17;1745953;82;20934;-38
2022/12/02 21:42:24;;;;;;;25.85;15.50;;;;;;;0.05;64.00;100756.75;1745990;82;21077;-38
2022/12/02 21:44:51;;;;;;;26.82;16.15;;;;;;;0.12;63.96;100754.69;1745985;82;21121;-38
2022/12/02 21:47:17;;;;;;;24.30;15.28;;;;;;;0.16;63.71;100759.77;1745870;82;21510;-38
2022/12/02 21:49:44;;;;;;;28.17;15.70;;;;;;;0.21;63.66;100759.00;1745787;82;21487;-38
2022/12/02 21:52:11;;;;;;;27.20;15.05;;;;;;;0.19;63.74;100756.61;1745875;82;21444;-38
2022/12/02 21:54:38;;;;;;;25.48;15.10;;;;;;;0.23;63.79;100764.38;1745786;82;20974;-38
2022/12/02 21:57:06;;;;;;;26.87;15.50;;;;;;;0.26;63.81;100759.04;1745959;82;22203;-38
2022/12/02 21:59:34;;;;;;;29.65;16.10;;;;;;;0.26;63.50;100761.18;1746169;82;21082;-38
2022/12/02 22:02:02;;;;;;;27.17;16.35;;;;;;;0.22;63.40;100768.62;1746031;82;21005;-38
2022/12/02 22:04:30;;;;;;;23.57;14.80;;;;;;;0.15;63.60;100760.83;1745991;82;20976;-38
2022/12/02 22:09:45;;;;;;;28.70;15.63;;;;;;;0.12;63.83;100772.02;1745970;82;21256;-39
2022/12/02 22:12:12;;;;;;;26.90;15.28;;;;;;;0.10;63.92;100767.45;1746765;82;21005;-39
2022/12/02 22:14:39;;;;;;;26.52;16.23;;;;;;;0.12;63.99;100771.20;1748826;82;21025;-38
2022/12/02 22:17:06;;;;;;;24.12;14.80;;;;;;;0.12;63.99;100755.21;1748938;82;21044;-38
2022/12/02 22:19:33;;;;;;;28.90;15.63;;;;;;;0.11;64.04;100761.07;1748874;82;21558;-39
2022/12/02 22:21:59;;;;;;;26.48;15.10;;;;;;;0.14;64.06;100769.91;1748884;82;22132;-38
2022/12/02 22:24:26;;;;;;;24.98;14.95;;;;;;;0.12;63.97;100768.55;1748957;82;21581;-38
2022/12/02 22:26:52;;;;;;;24.90;14.83;;;;;;;0.13;64.05;100758.97;1748855;82;21806;-38
2022/12/02 22:29:19;;;;;;;26.07;15.50;;;;;;;0.13;64.03;100768.30;1748787;82;21029;-38
2022/12/02 22:31:46;;;;;;;24.98;14.50;;;;;;;0.15;63.80;100758.69;1748821;82;21014;-38
2022/12/02 22:34:13;;;;;;;27.45;15.83;;;;;;;0.11;63.74;100765.59;1748907;82;21141;-38
2022/12/02 22:36:39;;;;;;;25.30;14.30;;;;;;;0.10;63.90;100768.79;1748734;82;20962;-38
2022/12/02 22:39:06;;;;;;;24.98;15.00;;;;;;;0.11;63.97;100765.07;1748781;82;21022;-38
2022/12/02 22:41:33;;;;;;;26.05;14.90;;;;;;;0.12;63.93;100773.34;1748832;82;21013;-38
2022/12/02 22:43:59;;;;;;;23.30;14.05;;;;;;;0.18;63.88;100760.34;1748799;82;21036;-38
2022/12/02 22:46:26;;;;;;;24.65;14.55;;;;;;;0.22;63.77;100761.42;1749023;82;21243;-39
2022/12/02 22:48:53;;;;;;;23.02;15.00;;;;;;;0.25;63.66;100763.56;1748776;82;20937;-38
2022/12/02 22:51:19;;;;;;;29.50;15.68;;;;;;;0.26;63.50;100762.52;1749157;82;21581;-38
2022/12/02 22:53:46;;;;;;;29.27;14.55;;;;;;;0.33;63.33;100763.11;1748892;82;21559;-38
2022/12/02 22:56:15;;;;;;;26.52;14.40;;;;;;;0.29;63.22;100761.98;1748958;82;21096;-38
2022/12/02 22:58:41;;;;;;;24.70;13.55;;;;;;;0.28;63.32;100759.07;1749020;82;21248;-39
2022/12/02 23:01:08;;;;;;;24.30;14.03;;;;;;;0.26;63.11;100758.51;1748889;82;21021;-38